sensor_id;sensor_type;location;lat;lon;timestamp;P1;durP1;ratioP1;P2;durP2;ratioP2
56321;SDS011;42227;6.376;-10.782;2023-01-16T00:01:03;31.30;;;20.45;;
56321;SDS011;42227;6.376;-10.782;2023-01-16T00:03:32;51.38;;;22.52;;
56321;SDS011;42227;6.376;-10.782;2023-01-16T00:06:00;48.38;;;21.48;;
56321;SDS011;42227;6.376;-10.782;2023-01-16T00:08:28;35.50;;;22.08;;
56321;SDS011;42227;6.376;-10.782;2023-01-16T00:10:57;40.85;;;23.23;;
56321;SDS011;42227;6.376;-10.782;2023-01-16T00:13:26;62.45;;;22.40;;
56321;SDS011;42227;6.376;-10.782;2023-01-16T00:15:55;51.42;;;22.83;;
56321;SDS011;42227;6.376;-10.782;2023-01-16T00:18:23;33.17;;;19.67;;
56321;SDS011;42227;6.376;-10.782;2023-01-16T00:20:51;54.13;;;21.77;;
56321;SDS011;42227;6.376;-10.782;2023-01-16T00:23:19;30.92;;;18.38;;
56321;SDS011;42227;6.376;-10.782;2023-01-16T00:25:48;30.88;;;17.98;;
56321;SDS011;42227;6.376;-10.782;2023-01-16T00:28:16;31.58;;;20.05;;
56321;SDS011;42227;6.376;-10.782;2023-01-16T00:30:44;60.28;;;26.65;;
56321;SDS011;42227;6.376;-10.782;2023-01-16T00:33:13;43.47;;;23.80;;
56321;SDS011;42227;6.376;-10.782;2023-01-16T00:35:42;91.25;;;43.38;;
56321;SDS011;42227;6.376;-10.782;2023-01-16T00:38:10;79.65;;;38.40;;
56321;SDS011;42227;6.376;-10.782;2023-01-16T00:40:38;79.80;;;37.17;;
56321;SDS011;42227;6.376;-10.782;2023-01-16T00:43:06;84.55;;;43.00;;
56321;SDS011;42227;6.376;-10.782;2023-01-16T00:45:35;98.38;;;52.72;;
56321;SDS011;42227;6.376;-10.782;2023-01-16T00:48:03;71.63;;;40.17;;
56321;SDS011;42227;6.376;-10.782;2023-01-16T00:50:32;80.72;;;45.30;;
56321;SDS011;42227;6.376;-10.782;2023-01-16T00:53:01;77.72;;;44.17;;
56321;SDS011;42227;6.376;-10.782;2023-01-16T00:55:29;92.05;;;48.00;;
56321;SDS011;42227;6.376;-10.782;2023-01-16T00:57:59;80.68;;;47.78;;
56321;SDS011;42227;6.376;-10.782;2023-01-16T01:00:28;93.53;;;54.47;;
56321;SDS011;42227;6.376;-10.782;2023-01-16T01:02:56;98.10;;;53.00;;
56321;SDS011;42227;6.376;-10.782;2023-01-16T01:05:24;90.97;;;53.92;;
56321;SDS011;42227;6.376;-10.782;2023-01-16T01:07:53;84.53;;;55.58;;
56321;SDS011;42227;6.376;-10.782;2023-01-16T01:10:22;109.53;;;58.10;;
56321;SDS011;42227;6.376;-10.782;2023-01-16T01:12:52;96.05;;;59.75;;
56321;SDS011;42227;6.376;-10.782;2023-01-16T01:15:22;90.03;;;60.58;;
56321;SDS011;42227;6.376;-10.782;2023-01-16T01:17:51;103.13;;;73.00;;
56321;SDS011;42227;6.376;-10.782;2023-01-16T01:20:19;100.97;;;74.85;;
56321;SDS011;42227;6.376;-10.782;2023-01-16T01:22:48;131.50;;;86.35;;
56321;SDS011;42227;6.376;-10.782;2023-01-16T01:25:16;109.70;;;71.88;;
56321;SDS011;42227;6.376;-10.782;2023-01-16T01:27:44;74.10;;;59.35;;
56321;SDS011;42227;6.376;-10.782;2023-01-16T01:30:12;89.55;;;59.47;;
56321;SDS011;42227;6.376;-10.782;2023-01-16T01:32:41;56.28;;;38.78;;
56321;SDS011;42227;6.376;-10.782;2023-01-16T01:35:10;44.50;;;29.10;;
56321;SDS011;42227;6.376;-10.782;2023-01-16T01:37:38;42.30;;;28.25;;
56321;SDS011;42227;6.376;-10.782;2023-01-16T01:40:06;40.60;;;27.10;;
56321;SDS011;42227;6.376;-10.782;2023-01-16T01:42:36;42.40;;;28.17;;
56321;SDS011;42227;6.376;-10.782;2023-01-16T01:45:11;35.88;;;29.42;;
56321;SDS011;42227;6.376;-10.782;2023-01-16T01:50:51;33.55;;;28.20;;
56321;SDS011;42227;6.376;-10.782;2023-01-16T01:53:26;40.53;;;31.52;;
56321;SDS011;42227;6.376;-10.782;2023-01-16T01:56:00;41.38;;;26.65;;
56321;SDS011;42227;6.376;-10.782;2023-01-16T01:58:36;32.70;;;27.83;;
56321;SDS011;42227;6.376;-10.782;2023-01-16T02:01:11;38.63;;;26.67;;
56321;SDS011;42227;6.376;-10.782;2023-01-16T02:03:41;30.73;;;24.73;;
56321;SDS011;42227;6.376;-10.782;2023-01-16T02:06:18;39.78;;;26.50;;
56321;SDS011;42227;6.376;-10.782;2023-01-16T02:08:49;32.17;;;24.55;;
56321;SDS011;42227;6.376;-10.782;2023-01-16T02:11:23;33.55;;;23.48;;
56321;SDS011;42227;6.376;-10.782;2023-01-16T02:14:02;36.10;;;23.90;;
56321;SDS011;42227;6.376;-10.782;2023-01-16T02:16:36;35.80;;;25.65;;
56321;SDS011;42227;6.376;-10.782;2023-01-16T02:19:05;27.65;;;24.55;;
56321;SDS011;42227;6.376;-10.782;2023-01-16T02:27:31;37.13;;;22.15;;
56321;SDS011;42227;6.376;-10.782;2023-01-16T02:33:33;55.55;;;26.75;;
56321;SDS011;42227;6.376;-10.782;2023-01-16T02:36:09;50.20;;;27.65;;
56321;SDS011;42227;6.376;-10.782;2023-01-16T02:38:55;46.00;;;30.25;;
56321;SDS011;42227;6.376;-10.782;2023-01-16T02:49:57;67.22;;;38.78;;
56321;SDS011;42227;6.376;-10.782;2023-01-16T02:52:45;60.08;;;39.78;;
56321;SDS011;42227;6.376;-10.782;2023-01-16T02:58:00;52.70;;;31.48;;
56321;SDS011;42227;6.376;-10.782;2023-01-16T03:00:30;44.72;;;29.88;;
56321;SDS011;42227;6.376;-10.782;2023-01-16T03:03:01;46.75;;;25.95;;
56321;SDS011;42227;6.376;-10.782;2023-01-16T03:05:31;42.72;;;25.42;;
56321;SDS011;42227;6.376;-10.782;2023-01-16T03:28:04;45.47;;;27.40;;
56321;SDS011;42227;6.376;-10.782;2023-01-16T03:30:45;40.65;;;25.13;;
56321;SDS011;42227;6.376;-10.782;2023-01-16T03:33:46;46.50;;;26.23;;
56321;SDS011;42227;6.376;-10.782;2023-01-16T03:37:03;34.72;;;25.70;;
56321;SDS011;42227;6.376;-10.782;2023-01-16T03:39:16;37.30;;;24.33;;
56321;SDS011;42227;6.376;-10.782;2023-01-16T03:41:49;30.23;;;24.50;;
56321;SDS011;42227;6.376;-10.782;2023-01-16T03:46:54;32.22;;;21.02;;
56321;SDS011;42227;6.376;-10.782;2023-01-16T03:49:27;46.03;;;23.85;;
56321;SDS011;42227;6.376;-10.782;2023-01-16T03:52:06;47.45;;;26.30;;
56321;SDS011;42227;6.376;-10.782;2023-01-16T04:00:03;40.33;;;28.42;;
56321;SDS011;42227;6.376;-10.782;2023-01-16T04:02:44;47.90;;;29.08;;
56321;SDS011;42227;6.376;-10.782;2023-01-16T04:05:20;43.03;;;28.23;;
56321;SDS011;42227;6.376;-10.782;2023-01-16T04:08:00;49.65;;;29.63;;
56321;SDS011;42227;6.376;-10.782;2023-01-16T04:10:37;49.17;;;24.08;;
56321;SDS011;42227;6.376;-10.782;2023-01-16T04:13:14;29.70;;;19.65;;
56321;SDS011;42227;6.376;-10.782;2023-01-16T04:15:51;29.80;;;20.45;;
56321;SDS011;42227;6.376;-10.782;2023-01-16T04:18:25;32.53;;;20.80;;
56321;SDS011;42227;6.376;-10.782;2023-01-16T04:20:57;37.80;;;21.70;;
56321;SDS011;42227;6.376;-10.782;2023-01-16T04:23:26;33.53;;;21.27;;
56321;SDS011;42227;6.376;-10.782;2023-01-16T04:25:54;38.28;;;22.27;;
56321;SDS011;42227;6.376;-10.782;2023-01-16T04:28:22;36.70;;;24.95;;
56321;SDS011;42227;6.376;-10.782;2023-01-16T04:30:50;37.28;;;24.20;;
56321;SDS011;42227;6.376;-10.782;2023-01-16T04:33:19;37.72;;;23.60;;
56321;SDS011;42227;6.376;-10.782;2023-01-16T04:35:47;43.63;;;24.10;;
56321;SDS011;42227;6.376;-10.782;2023-01-16T04:38:15;31.95;;;21.73;;
56321;SDS011;42227;6.376;-10.782;2023-01-16T04:40:43;37.45;;;22.85;;
56321;SDS011;42227;6.376;-10.782;2023-01-16T04:43:12;34.67;;;22.83;;
56321;SDS011;42227;6.376;-10.782;2023-01-16T04:45:41;50.67;;;20.27;;
56321;SDS011;42227;6.376;-10.782;2023-01-16T04:48:09;40.30;;;21.33;;
56321;SDS011;42227;6.376;-10.782;2023-01-16T04:50:37;35.85;;;20.27;;
56321;SDS011;42227;6.376;-10.782;2023-01-16T04:53:06;39.03;;;23.80;;
56321;SDS011;42227;6.376;-10.782;2023-01-16T04:55:34;31.73;;;22.00;;
56321;SDS011;42227;6.376;-10.782;2023-01-16T04:58:02;29.00;;;22.25;;
56321;SDS011;42227;6.376;-10.782;2023-01-16T05:00:30;40.10;;;22.70;;
56321;SDS011;42227;6.376;-10.782;2023-01-16T05:02:59;30.45;;;20.50;;
56321;SDS011;42227;6.376;-10.782;2023-01-16T05:05:27;37.60;;;21.75;;
56321;SDS011;42227;6.376;-10.782;2023-01-16T05:07:55;26.00;;;19.15;;
56321;SDS011;42227;6.376;-10.782;2023-01-16T05:10:23;37.22;;;23.08;;
56321;SDS011;42227;6.376;-10.782;2023-01-16T05:12:51;44.63;;;20.52;;
56321;SDS011;42227;6.376;-10.782;2023-01-16T05:15:20;29.50;;;20.98;;
56321;SDS011;42227;6.376;-10.782;2023-01-16T05:17:48;45.53;;;22.48;;
56321;SDS011;42227;6.376;-10.782;2023-01-16T05:20:16;29.63;;;20.50;;
56321;SDS011;42227;6.376;-10.782;2023-01-16T05:22:44;58.58;;;21.35;;
56321;SDS011;42227;6.376;-10.782;2023-01-16T05:25:12;41.00;;;21.90;;
56321;SDS011;42227;6.376;-10.782;2023-01-16T05:27:41;31.95;;;19.50;;
56321;SDS011;42227;6.376;-10.782;2023-01-16T05:30:09;23.95;;;19.38;;
56321;SDS011;42227;6.376;-10.782;2023-01-16T05:32:38;37.47;;;21.38;;
56321;SDS011;42227;6.376;-10.782;2023-01-16T05:35:06;32.42;;;21.23;;
56321;SDS011;42227;6.376;-10.782;2023-01-16T05:37:35;39.95;;;24.67;;
56321;SDS011;42227;6.376;-10.782;2023-01-16T05:40:03;30.67;;;21.85;;
56321;SDS011;42227;6.376;-10.782;2023-01-16T05:42:32;39.67;;;22.92;;
56321;SDS011;42227;6.376;-10.782;2023-01-16T05:45:00;35.97;;;24.27;;
56321;SDS011;42227;6.376;-10.782;2023-01-16T05:47:28;35.88;;;25.52;;
56321;SDS011;42227;6.376;-10.782;2023-01-16T05:49:57;35.72;;;24.75;;
56321;SDS011;42227;6.376;-10.782;2023-01-16T05:52:25;43.35;;;27.35;;
56321;SDS011;42227;6.376;-10.782;2023-01-16T05:54:54;40.13;;;26.92;;
56321;SDS011;42227;6.376;-10.782;2023-01-16T05:57:22;40.63;;;23.92;;
56321;SDS011;42227;6.376;-10.782;2023-01-16T05:59:51;36.42;;;25.33;;
56321;SDS011;42227;6.376;-10.782;2023-01-16T06:02:20;39.38;;;25.90;;
56321;SDS011;42227;6.376;-10.782;2023-01-16T06:04:48;39.40;;;23.73;;
56321;SDS011;42227;6.376;-10.782;2023-01-16T06:07:17;30.95;;;22.60;;
56321;SDS011;42227;6.376;-10.782;2023-01-16T06:09:46;29.60;;;22.27;;
56321;SDS011;42227;6.376;-10.782;2023-01-16T06:12:14;41.95;;;22.77;;
56321;SDS011;42227;6.376;-10.782;2023-01-16T06:14:44;31.35;;;20.48;;
56321;SDS011;42227;6.376;-10.782;2023-01-16T06:17:15;36.83;;;21.88;;
56321;SDS011;42227;6.376;-10.782;2023-01-16T06:19:43;36.10;;;23.77;;
56321;SDS011;42227;6.376;-10.782;2023-01-16T06:22:12;30.70;;;22.23;;
56321;SDS011;42227;6.376;-10.782;2023-01-16T06:24:41;46.83;;;28.48;;
56321;SDS011;42227;6.376;-10.782;2023-01-16T06:27:09;31.90;;;23.77;;
56321;SDS011;42227;6.376;-10.782;2023-01-16T06:29:37;45.30;;;25.98;;
56321;SDS011;42227;6.376;-10.782;2023-01-16T06:32:05;31.40;;;23.50;;
56321;SDS011;42227;6.376;-10.782;2023-01-16T06:34:34;41.25;;;25.65;;
56321;SDS011;42227;6.376;-10.782;2023-01-16T06:37:02;44.58;;;24.92;;
56321;SDS011;42227;6.376;-10.782;2023-01-16T06:39:31;50.10;;;27.45;;
56321;SDS011;42227;6.376;-10.782;2023-01-16T06:41:59;45.75;;;25.98;;
56321;SDS011;42227;6.376;-10.782;2023-01-16T06:44:27;35.88;;;26.30;;
56321;SDS011;42227;6.376;-10.782;2023-01-16T06:46:55;48.63;;;27.17;;
56321;SDS011;42227;6.376;-10.782;2023-01-16T06:49:24;42.55;;;28.00;;
56321;SDS011;42227;6.376;-10.782;2023-01-16T06:51:52;41.85;;;25.15;;
56321;SDS011;42227;6.376;-10.782;2023-01-16T06:54:20;42.83;;;27.20;;
56321;SDS011;42227;6.376;-10.782;2023-01-16T06:56:49;40.75;;;26.60;;
56321;SDS011;42227;6.376;-10.782;2023-01-16T06:59:17;49.58;;;27.65;;
56321;SDS011;42227;6.376;-10.782;2023-01-16T07:01:45;34.80;;;27.50;;
56321;SDS011;42227;6.376;-10.782;2023-01-16T07:04:13;44.33;;;24.75;;
56321;SDS011;42227;6.376;-10.782;2023-01-16T07:06:42;51.05;;;27.35;;
56321;SDS011;42227;6.376;-10.782;2023-01-16T07:09:10;36.13;;;23.80;;
56321;SDS011;42227;6.376;-10.782;2023-01-16T07:11:38;38.83;;;26.17;;
56321;SDS011;42227;6.376;-10.782;2023-01-16T07:14:08;35.83;;;26.00;;
56321;SDS011;42227;6.376;-10.782;2023-01-16T07:16:36;41.35;;;25.00;;
56321;SDS011;42227;6.376;-10.782;2023-01-16T07:19:04;44.80;;;25.67;;
56321;SDS011;42227;6.376;-10.782;2023-01-16T07:21:35;56.70;;;29.85;;
56321;SDS011;42227;6.376;-10.782;2023-01-16T07:24:07;41.95;;;27.55;;
56321;SDS011;42227;6.376;-10.782;2023-01-16T07:26:39;45.17;;;27.17;;
56321;SDS011;42227;6.376;-10.782;2023-01-16T07:31:38;45.75;;;27.55;;
56321;SDS011;42227;6.376;-10.782;2023-01-16T07:34:07;34.58;;;26.48;;
56321;SDS011;42227;6.376;-10.782;2023-01-16T07:36:35;51.78;;;29.80;;
56321;SDS011;42227;6.376;-10.782;2023-01-16T07:39:04;33.33;;;23.65;;
56321;SDS011;42227;6.376;-10.782;2023-01-16T07:41:32;34.05;;;23.58;;
56321;SDS011;42227;6.376;-10.782;2023-01-16T07:44:00;30.05;;;23.25;;
56321;SDS011;42227;6.376;-10.782;2023-01-16T07:46:28;40.67;;;22.95;;
56321;SDS011;42227;6.376;-10.782;2023-01-16T07:48:56;42.35;;;24.08;;
56321;SDS011;42227;6.376;-10.782;2023-01-16T07:51:25;39.65;;;22.83;;
56321;SDS011;42227;6.376;-10.782;2023-01-16T07:53:53;34.50;;;21.42;;
56321;SDS011;42227;6.376;-10.782;2023-01-16T07:56:21;25.15;;;20.25;;
56321;SDS011;42227;6.376;-10.782;2023-01-16T07:58:50;26.73;;;21.38;;
56321;SDS011;42227;6.376;-10.782;2023-01-16T08:01:18;34.58;;;21.85;;
56321;SDS011;42227;6.376;-10.782;2023-01-16T08:03:46;27.75;;;20.50;;
56321;SDS011;42227;6.376;-10.782;2023-01-16T08:06:15;32.45;;;18.48;;
56321;SDS011;42227;6.376;-10.782;2023-01-16T08:08:43;26.70;;;17.65;;
56321;SDS011;42227;6.376;-10.782;2023-01-16T08:11:11;30.02;;;20.33;;
56321;SDS011;42227;6.376;-10.782;2023-01-16T08:13:40;23.75;;;17.98;;
56321;SDS011;42227;6.376;-10.782;2023-01-16T08:16:08;34.30;;;19.92;;
56321;SDS011;42227;6.376;-10.782;2023-01-16T08:18:36;30.15;;;18.85;;
56321;SDS011;42227;6.376;-10.782;2023-01-16T08:21:04;31.63;;;20.05;;
56321;SDS011;42227;6.376;-10.782;2023-01-16T08:23:33;32.88;;;22.55;;
56321;SDS011;42227;6.376;-10.782;2023-01-16T08:26:01;25.58;;;16.25;;
56321;SDS011;42227;6.376;-10.782;2023-01-16T08:28:29;29.05;;;16.00;;
56321;SDS011;42227;6.376;-10.782;2023-01-16T08:31:02;31.38;;;17.05;;
56321;SDS011;42227;6.376;-10.782;2023-01-16T08:33:32;25.48;;;14.70;;
56321;SDS011;42227;6.376;-10.782;2023-01-16T08:36:02;26.50;;;14.80;;
56321;SDS011;42227;6.376;-10.782;2023-01-16T08:38:32;36.83;;;16.17;;
56321;SDS011;42227;6.376;-10.782;2023-01-16T08:41:00;34.20;;;19.27;;
56321;SDS011;42227;6.376;-10.782;2023-01-16T08:43:28;34.60;;;16.98;;
56321;SDS011;42227;6.376;-10.782;2023-01-16T08:45:57;39.30;;;19.20;;
56321;SDS011;42227;6.376;-10.782;2023-01-16T08:48:25;24.27;;;16.00;;
56321;SDS011;42227;6.376;-10.782;2023-01-16T08:50:54;37.15;;;17.75;;
56321;SDS011;42227;6.376;-10.782;2023-01-16T08:53:24;44.10;;;21.27;;
56321;SDS011;42227;6.376;-10.782;2023-01-16T08:55:52;24.98;;;14.30;;
56321;SDS011;42227;6.376;-10.782;2023-01-16T08:58:21;29.30;;;14.85;;
56321;SDS011;42227;6.376;-10.782;2023-01-16T09:00:49;28.38;;;15.00;;
56321;SDS011;42227;6.376;-10.782;2023-01-16T09:03:18;33.78;;;16.55;;
56321;SDS011;42227;6.376;-10.782;2023-01-16T09:05:46;45.15;;;16.77;;
56321;SDS011;42227;6.376;-10.782;2023-01-16T09:08:14;36.15;;;17.33;;
56321;SDS011;42227;6.376;-10.782;2023-01-16T09:10:43;33.65;;;14.35;;
56321;SDS011;42227;6.376;-10.782;2023-01-16T09:13:11;33.83;;;14.52;;
56321;SDS011;42227;6.376;-10.782;2023-01-16T09:15:39;23.35;;;13.85;;
56321;SDS011;42227;6.376;-10.782;2023-01-16T09:18:07;33.97;;;15.38;;
56321;SDS011;42227;6.376;-10.782;2023-01-16T09:20:35;28.35;;;13.40;;
56321;SDS011;42227;6.376;-10.782;2023-01-16T09:23:04;24.55;;;12.77;;
56321;SDS011;42227;6.376;-10.782;2023-01-16T09:25:33;25.20;;;16.05;;
56321;SDS011;42227;6.376;-10.782;2023-01-16T09:28:01;44.38;;;17.63;;
56321;SDS011;42227;6.376;-10.782;2023-01-16T09:30:29;33.05;;;16.52;;
56321;SDS011;42227;6.376;-10.782;2023-01-16T09:32:58;33.70;;;13.20;;
56321;SDS011;42227;6.376;-10.782;2023-01-16T09:35:26;32.03;;;15.82;;
56321;SDS011;42227;6.376;-10.782;2023-01-16T09:37:54;28.20;;;12.88;;
56321;SDS011;42227;6.376;-10.782;2023-01-16T09:40:22;23.25;;;13.25;;
56321;SDS011;42227;6.376;-10.782;2023-01-16T09:43:00;26.45;;;14.80;;
56321;SDS011;42227;6.376;-10.782;2023-01-16T09:45:31;31.95;;;14.90;;
56321;SDS011;42227;6.376;-10.782;2023-01-16T09:48:04;34.60;;;14.27;;
56321;SDS011;42227;6.376;-10.782;2023-01-16T09:50:47;35.38;;;15.07;;
56321;SDS011;42227;6.376;-10.782;2023-01-16T09:53:20;30.77;;;13.68;;
56321;SDS011;42227;6.376;-10.782;2023-01-16T09:55:58;25.13;;;17.08;;
56321;SDS011;42227;6.376;-10.782;2023-01-16T09:58:28;23.55;;;15.73;;
56321;SDS011;42227;6.376;-10.782;2023-01-16T10:00:57;25.10;;;15.15;;
56321;SDS011;42227;6.376;-10.782;2023-01-16T10:03:26;20.95;;;14.27;;
56321;SDS011;42227;6.376;-10.782;2023-01-16T10:08:38;29.38;;;14.82;;
56321;SDS011;42227;6.376;-10.782;2023-01-16T10:16:55;20.25;;;13.85;;
56321;SDS011;42227;6.376;-10.782;2023-01-16T10:19:49;31.63;;;12.93;;
56321;SDS011;42227;6.376;-10.782;2023-01-16T10:25:29;26.17;;;15.43;;
56321;SDS011;42227;6.376;-10.782;2023-01-16T10:34:10;22.35;;;14.45;;
56321;SDS011;42227;6.376;-10.782;2023-01-16T10:36:48;31.20;;;14.55;;
56321;SDS011;42227;6.376;-10.782;2023-01-16T10:39:20;36.22;;;14.93;;
56321;SDS011;42227;6.376;-10.782;2023-01-16T10:41:54;28.92;;;16.30;;
56321;SDS011;42227;6.376;-10.782;2023-01-16T10:44:38;29.95;;;14.82;;
56321;SDS011;42227;6.376;-10.782;2023-01-16T10:47:30;31.85;;;14.95;;
56321;SDS011;42227;6.376;-10.782;2023-01-16T10:50:01;21.73;;;13.15;;
56321;SDS011;42227;6.376;-10.782;2023-01-16T10:52:30;29.10;;;16.30;;
56321;SDS011;42227;6.376;-10.782;2023-01-16T10:54:59;24.15;;;13.98;;
56321;SDS011;42227;6.376;-10.782;2023-01-16T10:57:29;33.47;;;18.63;;
56321;SDS011;42227;6.376;-10.782;2023-01-16T11:00:05;37.85;;;18.63;;
56321;SDS011;42227;6.376;-10.782;2023-01-16T11:02:40;24.58;;;15.63;;
56321;SDS011;42227;6.376;-10.782;2023-01-16T11:05:27;40.40;;;16.65;;
56321;SDS011;42227;6.376;-10.782;2023-01-16T11:08:09;18.85;;;14.57;;
56321;SDS011;42227;6.376;-10.782;2023-01-16T11:10:40;49.38;;;18.52;;
56321;SDS011;42227;6.376;-10.782;2023-01-16T11:16:04;42.25;;;22.65;;
56321;SDS011;42227;6.376;-10.782;2023-01-16T11:18:47;64.50;;;26.77;;
56321;SDS011;42227;6.376;-10.782;2023-01-16T11:21:36;53.03;;;27.95;;
56321;SDS011;42227;6.376;-10.782;2023-01-16T11:24:13;27.75;;;19.02;;
56321;SDS011;42227;6.376;-10.782;2023-01-16T11:26:49;38.47;;;24.35;;
56321;SDS011;42227;6.376;-10.782;2023-01-16T11:29:20;36.13;;;17.15;;
56321;SDS011;42227;6.376;-10.782;2023-01-16T11:31:55;40.05;;;20.40;;
56321;SDS011;42227;6.376;-10.782;2023-01-16T11:34:27;44.53;;;23.08;;
56321;SDS011;42227;6.376;-10.782;2023-01-16T11:36:57;47.63;;;17.67;;
56321;SDS011;42227;6.376;-10.782;2023-01-16T11:39:31;57.90;;;20.10;;
56321;SDS011;42227;6.376;-10.782;2023-01-16T11:42:03;38.35;;;20.13;;
56321;SDS011;42227;6.376;-10.782;2023-01-16T11:44:37;22.88;;;16.80;;
56321;SDS011;42227;6.376;-10.782;2023-01-16T11:47:11;35.13;;;16.80;;
56321;SDS011;42227;6.376;-10.782;2023-01-16T11:49:46;29.50;;;17.13;;
56321;SDS011;42227;6.376;-10.782;2023-01-16T11:52:18;22.98;;;15.70;;
56321;SDS011;42227;6.376;-10.782;2023-01-16T11:54:48;25.23;;;13.63;;
56321;SDS011;42227;6.376;-10.782;2023-01-16T11:57:25;39.38;;;16.17;;
56321;SDS011;42227;6.376;-10.782;2023-01-16T12:08:56;39.83;;;17.63;;
56321;SDS011;42227;6.376;-10.782;2023-01-16T12:12:03;42.65;;;17.92;;
56321;SDS011;42227;6.376;-10.782;2023-01-16T12:14:29;55.15;;;26.77;;
56321;SDS011;42227;6.376;-10.782;2023-01-16T12:20:01;42.58;;;19.98;;
56321;SDS011;42227;6.376;-10.782;2023-01-16T12:31:02;32.10;;;14.43;;
56321;SDS011;42227;6.376;-10.782;2023-01-16T12:33:43;38.33;;;15.23;;
56321;SDS011;42227;6.376;-10.782;2023-01-16T12:39:32;31.60;;;14.65;;
56321;SDS011;42227;6.376;-10.782;2023-01-16T12:42:19;24.67;;;14.07;;
56321;SDS011;42227;6.376;-10.782;2023-01-16T12:50:23;42.05;;;19.00;;
56321;SDS011;42227;6.376;-10.782;2023-01-16T12:53:17;52.88;;;20.60;;
56321;SDS011;42227;6.376;-10.782;2023-01-16T12:58:45;30.75;;;16.40;;
56321;SDS011;42227;6.376;-10.782;2023-01-16T13:04:09;26.80;;;15.98;;
56321;SDS011;42227;6.376;-10.782;2023-01-16T13:06:50;29.20;;;14.52;;
56321;SDS011;42227;6.376;-10.782;2023-01-16T13:12:38;32.47;;;15.85;;
56321;SDS011;42227;6.376;-10.782;2023-01-16T13:15:09;42.75;;;16.95;;
56321;SDS011;42227;6.376;-10.782;2023-01-16T13:17:48;46.75;;;16.27;;
56321;SDS011;42227;6.376;-10.782;2023-01-16T13:20:22;41.60;;;18.17;;
56321;SDS011;42227;6.376;-10.782;2023-01-16T13:23:02;48.97;;;18.47;;
56321;SDS011;42227;6.376;-10.782;2023-01-16T13:25:37;28.63;;;15.00;;
56321;SDS011;42227;6.376;-10.782;2023-01-16T13:28:25;29.80;;;14.68;;
56321;SDS011;42227;6.376;-10.782;2023-01-16T13:31:06;32.45;;;15.38;;
56321;SDS011;42227;6.376;-10.782;2023-01-16T13:34:00;28.02;;;12.02;;
56321;SDS011;42227;6.376;-10.782;2023-01-16T13:37:18;48.28;;;16.90;;
56321;SDS011;42227;6.376;-10.782;2023-01-16T13:40:26;35.92;;;15.30;;
56321;SDS011;42227;6.376;-10.782;2023-01-16T13:43:02;25.00;;;15.07;;
56321;SDS011;42227;6.376;-10.782;2023-01-16T13:45:33;33.35;;;18.55;;
56321;SDS011;42227;6.376;-10.782;2023-01-16T13:48:03;33.45;;;16.73;;
56321;SDS011;42227;6.376;-10.782;2023-01-16T13:50:32;49.88;;;16.67;;
56321;SDS011;42227;6.376;-10.782;2023-01-16T13:53:04;38.97;;;17.52;;
56321;SDS011;42227;6.376;-10.782;2023-01-16T13:55:36;28.25;;;15.98;;
56321;SDS011;42227;6.376;-10.782;2023-01-16T13:58:25;38.92;;;18.73;;
56321;SDS011;42227;6.376;-10.782;2023-01-16T14:00:58;33.95;;;14.88;;
56321;SDS011;42227;6.376;-10.782;2023-01-16T14:03:29;36.88;;;15.48;;
56321;SDS011;42227;6.376;-10.782;2023-01-16T14:06:21;56.77;;;19.27;;
56321;SDS011;42227;6.376;-10.782;2023-01-16T14:17:10;30.00;;;15.70;;
56321;SDS011;42227;6.376;-10.782;2023-01-16T14:19:55;24.45;;;14.10;;
56321;SDS011;42227;6.376;-10.782;2023-01-16T14:22:41;26.58;;;12.90;;
56321;SDS011;42227;6.376;-10.782;2023-01-16T14:25:19;41.75;;;14.52;;
56321;SDS011;42227;6.376;-10.782;2023-01-16T14:27:50;32.38;;;14.48;;
56321;SDS011;42227;6.376;-10.782;2023-01-16T14:30:24;41.10;;;15.05;;
56321;SDS011;42227;6.376;-10.782;2023-01-16T14:32:57;34.05;;;14.38;;
56321;SDS011;42227;6.376;-10.782;2023-01-16T14:35:30;53.72;;;14.95;;
56321;SDS011;42227;6.376;-10.782;2023-01-16T14:38:11;35.60;;;16.08;;
56321;SDS011;42227;6.376;-10.782;2023-01-16T14:40:57;47.38;;;17.70;;
56321;SDS011;42227;6.376;-10.782;2023-01-16T14:43:29;29.35;;;16.10;;
56321;SDS011;42227;6.376;-10.782;2023-01-16T14:48:45;40.35;;;18.70;;
56321;SDS011;42227;6.376;-10.782;2023-01-16T14:51:32;29.30;;;14.27;;
56321;SDS011;42227;6.376;-10.782;2023-01-16T14:56:36;42.05;;;17.27;;
56321;SDS011;42227;6.376;-10.782;2023-01-16T15:02:26;33.88;;;15.35;;
56321;SDS011;42227;6.376;-10.782;2023-01-16T15:05:07;52.90;;;17.80;;
56321;SDS011;42227;6.376;-10.782;2023-01-16T15:13:15;36.42;;;17.25;;
56321;SDS011;42227;6.376;-10.782;2023-01-16T15:15:46;26.05;;;14.60;;
56321;SDS011;42227;6.376;-10.782;2023-01-16T15:18:26;30.05;;;15.23;;
56321;SDS011;42227;6.376;-10.782;2023-01-16T15:20:54;37.08;;;16.55;;
56321;SDS011;42227;6.376;-10.782;2023-01-16T15:23:33;41.13;;;17.55;;
56321;SDS011;42227;6.376;-10.782;2023-01-16T15:31:25;28.42;;;17.35;;
56321;SDS011;42227;6.376;-10.782;2023-01-16T15:34:19;37.90;;;17.17;;
56321;SDS011;42227;6.376;-10.782;2023-01-16T15:36:51;29.73;;;13.35;;
56321;SDS011;42227;6.376;-10.782;2023-01-16T15:39:25;41.65;;;17.67;;
56321;SDS011;42227;6.376;-10.782;2023-01-16T15:44:42;25.23;;;14.13;;
56321;SDS011;42227;6.376;-10.782;2023-01-16T15:47:22;27.05;;;14.43;;
56321;SDS011;42227;6.376;-10.782;2023-01-16T15:53:20;39.05;;;15.45;;
56321;SDS011;42227;6.376;-10.782;2023-01-16T15:55:55;39.83;;;14.73;;
56321;SDS011;42227;6.376;-10.782;2023-01-16T15:58:29;33.28;;;13.52;;
56321;SDS011;42227;6.376;-10.782;2023-01-16T16:01:03;28.90;;;15.63;;
56321;SDS011;42227;6.376;-10.782;2023-01-16T16:03:50;36.55;;;15.25;;
56321;SDS011;42227;6.376;-10.782;2023-01-16T16:06:19;38.08;;;16.80;;
56321;SDS011;42227;6.376;-10.782;2023-01-16T16:08:50;34.60;;;14.93;;
56321;SDS011;42227;6.376;-10.782;2023-01-16T16:13:57;29.45;;;14.82;;
56321;SDS011;42227;6.376;-10.782;2023-01-16T16:16:27;17.48;;;12.75;;
56321;SDS011;42227;6.376;-10.782;2023-01-16T16:18:57;42.30;;;16.98;;
56321;SDS011;42227;6.376;-10.782;2023-01-16T16:21:27;28.15;;;16.65;;
56321;SDS011;42227;6.376;-10.782;2023-01-16T16:24:05;35.40;;;17.30;;
56321;SDS011;42227;6.376;-10.782;2023-01-16T16:26:39;35.70;;;16.45;;
56321;SDS011;42227;6.376;-10.782;2023-01-16T16:29:16;37.17;;;15.38;;
56321;SDS011;42227;6.376;-10.782;2023-01-16T16:31:47;29.17;;;15.52;;
56321;SDS011;42227;6.376;-10.782;2023-01-16T16:34:20;33.45;;;15.18;;
56321;SDS011;42227;6.376;-10.782;2023-01-16T16:36:50;31.75;;;16.15;;
56321;SDS011;42227;6.376;-10.782;2023-01-16T16:39:29;39.33;;;16.95;;
56321;SDS011;42227;6.376;-10.782;2023-01-16T16:47:38;34.33;;;15.80;;
56321;SDS011;42227;6.376;-10.782;2023-01-16T16:52:48;30.67;;;16.10;;
56321;SDS011;42227;6.376;-10.782;2023-01-16T16:55:30;30.40;;;17.13;;
56321;SDS011;42227;6.376;-10.782;2023-01-16T16:58:05;33.58;;;14.52;;
56321;SDS011;42227;6.376;-10.782;2023-01-16T17:00:44;40.45;;;16.58;;
56321;SDS011;42227;6.376;-10.782;2023-01-16T17:03:21;28.88;;;17.70;;
56321;SDS011;42227;6.376;-10.782;2023-01-16T17:05:51;32.72;;;17.75;;
56321;SDS011;42227;6.376;-10.782;2023-01-16T17:08:22;28.23;;;16.95;;
56321;SDS011;42227;6.376;-10.782;2023-01-16T17:10:52;34.45;;;15.88;;
56321;SDS011;42227;6.376;-10.782;2023-01-16T17:13:22;28.08;;;17.25;;
56321;SDS011;42227;6.376;-10.782;2023-01-16T17:15:53;31.98;;;14.70;;